sensor_id;sensor_type;location;lat;lon;timestamp;P1;durP1;ratioP1;P2;durP2;ratioP2
73733;SDS011;62039;50.000;9.064;2023-01-24T00:00:40;8.50;;;6.77;;
73733;SDS011;62039;50.000;9.064;2023-01-24T00:03:06;7.60;;;5.83;;
73733;SDS011;62039;50.000;9.064;2023-01-24T00:05:34;8.97;;;6.73;;
73733;SDS011;62039;50.000;9.064;2023-01-24T00:08:01;7.20;;;6.27;;
73733;SDS011;62039;50.000;9.064;2023-01-24T00:10:27;8.87;;;6.50;;
73733;SDS011;62039;50.000;9.064;2023-01-24T00:12:54;8.63;;;5.47;;
73733;SDS011;62039;50.000;9.064;2023-01-24T00:15:21;9.03;;;6.80;;
73733;SDS011;62039;50.000;9.064;2023-01-24T00:17:47;7.17;;;6.27;;
73733;SDS011;62039;50.000;9.064;2023-01-24T00:20:14;7.27;;;5.67;;
73733;SDS011;62039;50.000;9.064;2023-01-24T00:22:42;7.27;;;6.10;;
73733;SDS011;62039;50.000;9.064;2023-01-24T00:25:09;6.77;;;5.57;;
73733;SDS011;62039;50.000;9.064;2023-01-24T00:27:36;6.60;;;5.97;;
73733;SDS011;62039;50.000;9.064;2023-01-24T00:30:03;7.87;;;6.27;;
73733;SDS011;62039;50.000;9.064;2023-01-24T00:32:30;8.17;;;6.30;;
73733;SDS011;62039;50.000;9.064;2023-01-24T00:34:57;7.27;;;5.63;;
73733;SDS011;62039;50.000;9.064;2023-01-24T00:37:24;8.80;;;6.33;;
73733;SDS011;62039;50.000;9.064;2023-01-24T00:39:52;7.93;;;5.97;;
73733;SDS011;62039;50.000;9.064;2023-01-24T00:42:19;8.93;;;6.37;;
73733;SDS011;62039;50.000;9.064;2023-01-24T00:44:46;7.37;;;6.13;;
73733;SDS011;62039;50.000;9.064;2023-01-24T00:47:12;8.17;;;6.17;;
73733;SDS011;62039;50.000;9.064;2023-01-24T00:49:39;8.37;;;6.27;;
73733;SDS011;62039;50.000;9.064;2023-01-24T00:52:06;9.03;;;6.70;;
73733;SDS011;62039;50.000;9.064;2023-01-24T00:54:33;8.10;;;6.03;;
73733;SDS011;62039;50.000;9.064;2023-01-24T00:57:01;7.97;;;6.77;;
73733;SDS011;62039;50.000;9.064;2023-01-24T00:59:27;8.37;;;6.70;;
73733;SDS011;62039;50.000;9.064;2023-01-24T01:01:54;9.67;;;7.23;;
73733;SDS011;62039;50.000;9.064;2023-01-24T01:04:20;10.33;;;7.77;;
73733;SDS011;62039;50.000;9.064;2023-01-24T01:06:48;7.87;;;6.37;;
73733;SDS011;62039;50.000;9.064;2023-01-24T01:09:14;8.20;;;6.90;;
73733;SDS011;62039;50.000;9.064;2023-01-24T01:11:41;8.77;;;6.90;;
73733;SDS011;62039;50.000;9.064;2023-01-24T01:14:09;9.63;;;7.03;;
73733;SDS011;62039;50.000;9.064;2023-01-24T01:16:35;7.90;;;6.77;;
73733;SDS011;62039;50.000;9.064;2023-01-24T01:19:02;7.43;;;6.53;;
73733;SDS011;62039;50.000;9.064;2023-01-24T01:21:29;7.63;;;5.63;;
73733;SDS011;62039;50.000;9.064;2023-01-24T01:23:55;8.20;;;6.30;;
73733;SDS011;62039;50.000;9.064;2023-01-24T01:26:22;8.27;;;7.17;;
73733;SDS011;62039;50.000;9.064;2023-01-24T01:28:49;8.30;;;6.90;;
73733;SDS011;62039;50.000;9.064;2023-01-24T01:31:17;6.93;;;6.07;;
73733;SDS011;62039;50.000;9.064;2023-01-24T01:33:43;7.47;;;6.03;;
73733;SDS011;62039;50.000;9.064;2023-01-24T01:36:10;7.67;;;6.00;;
73733;SDS011;62039;50.000;9.064;2023-01-24T01:38:37;8.43;;;6.67;;
73733;SDS011;62039;50.000;9.064;2023-01-24T01:41:04;9.27;;;7.47;;
73733;SDS011;62039;50.000;9.064;2023-01-24T01:43:30;10.43;;;7.87;;
73733;SDS011;62039;50.000;9.064;2023-01-24T01:45:58;8.03;;;6.10;;
73733;SDS011;62039;50.000;9.064;2023-01-24T01:48:32;7.63;;;6.00;;
73733;SDS011;62039;50.000;9.064;2023-01-24T01:51:03;9.33;;;6.67;;
73733;SDS011;62039;50.000;9.064;2023-01-24T01:53:33;7.70;;;6.43;;
73733;SDS011;62039;50.000;9.064;2023-01-24T01:56:06;8.43;;;5.80;;
73733;SDS011;62039;50.000;9.064;2023-01-24T01:58:37;8.07;;;6.33;;
73733;SDS011;62039;50.000;9.064;2023-01-24T02:01:05;7.60;;;6.43;;
73733;SDS011;62039;50.000;9.064;2023-01-24T02:03:34;8.23;;;5.97;;
73733;SDS011;62039;50.000;9.064;2023-01-24T02:06:06;9.03;;;7.03;;
73733;SDS011;62039;50.000;9.064;2023-01-24T02:08:39;8.00;;;5.70;;
73733;SDS011;62039;50.000;9.064;2023-01-24T02:11:08;6.77;;;5.80;;
73733;SDS011;62039;50.000;9.064;2023-01-24T02:13:34;7.33;;;5.93;;
73733;SDS011;62039;50.000;9.064;2023-01-24T02:16:02;7.57;;;5.47;;
73733;SDS011;62039;50.000;9.064;2023-01-24T02:18:29;9.53;;;7.27;;
73733;SDS011;62039;50.000;9.064;2023-01-24T02:20:58;6.47;;;5.63;;
73733;SDS011;62039;50.000;9.064;2023-01-24T02:23:27;7.03;;;6.07;;
73733;SDS011;62039;50.000;9.064;2023-01-24T02:26:05;7.77;;;6.03;;
73733;SDS011;62039;50.000;9.064;2023-01-24T02:28:33;7.00;;;5.77;;
73733;SDS011;62039;50.000;9.064;2023-01-24T02:31:01;6.63;;;5.67;;
73733;SDS011;62039;50.000;9.064;2023-01-24T02:33:28;7.33;;;5.83;;
73733;SDS011;62039;50.000;9.064;2023-01-24T02:36:06;7.80;;;5.77;;
73733;SDS011;62039;50.000;9.064;2023-01-24T02:38:41;8.70;;;6.43;;
73733;SDS011;62039;50.000;9.064;2023-01-24T02:41:11;7.67;;;5.60;;
73733;SDS011;62039;50.000;9.064;2023-01-24T02:43:41;5.93;;;5.23;;
73733;SDS011;62039;50.000;9.064;2023-01-24T02:46:10;6.00;;;4.93;;
73733;SDS011;62039;50.000;9.064;2023-01-24T02:48:37;7.87;;;5.80;;
73733;SDS011;62039;50.000;9.064;2023-01-24T02:51:04;7.27;;;6.40;;
73733;SDS011;62039;50.000;9.064;2023-01-24T02:53:30;6.83;;;5.70;;
73733;SDS011;62039;50.000;9.064;2023-01-24T02:55:57;7.00;;;5.43;;
73733;SDS011;62039;50.000;9.064;2023-01-24T02:58:26;7.33;;;5.63;;
73733;SDS011;62039;50.000;9.064;2023-01-24T03:00:53;6.83;;;5.37;;
73733;SDS011;62039;50.000;9.064;2023-01-24T03:03:20;6.87;;;5.20;;
73733;SDS011;62039;50.000;9.064;2023-01-24T03:05:46;6.03;;;4.83;;
73733;SDS011;62039;50.000;9.064;2023-01-24T03:08:13;5.60;;;4.87;;
73733;SDS011;62039;50.000;9.064;2023-01-24T03:10:39;7.33;;;5.80;;
73733;SDS011;62039;50.000;9.064;2023-01-24T03:13:06;6.80;;;5.23;;
73733;SDS011;62039;50.000;9.064;2023-01-24T03:15:34;6.63;;;4.83;;
73733;SDS011;62039;50.000;9.064;2023-01-24T03:18:00;6.10;;;5.17;;
73733;SDS011;62039;50.000;9.064;2023-01-24T03:20:27;7.67;;;6.87;;
73733;SDS011;62039;50.000;9.064;2023-01-24T03:22:54;6.37;;;5.43;;
73733;SDS011;62039;50.000;9.064;2023-01-24T03:25:20;7.23;;;6.00;;
73733;SDS011;62039;50.000;9.064;2023-01-24T03:27:47;6.33;;;5.40;;
73733;SDS011;62039;50.000;9.064;2023-01-24T03:30:14;7.07;;;5.93;;
73733;SDS011;62039;50.000;9.064;2023-01-24T03:32:42;7.77;;;5.90;;
73733;SDS011;62039;50.000;9.064;2023-01-24T03:35:08;7.23;;;6.13;;
73733;SDS011;62039;50.000;9.064;2023-01-24T03:37:35;7.20;;;5.43;;
73733;SDS011;62039;50.000;9.064;2023-01-24T03:40:01;6.37;;;5.10;;
73733;SDS011;62039;50.000;9.064;2023-01-24T03:42:28;6.87;;;5.40;;
73733;SDS011;62039;50.000;9.064;2023-01-24T03:44:55;6.10;;;4.80;;
73733;SDS011;62039;50.000;9.064;2023-01-24T03:47:21;6.57;;;5.07;;
73733;SDS011;62039;50.000;9.064;2023-01-24T03:49:49;6.00;;;4.93;;
73733;SDS011;62039;50.000;9.064;2023-01-24T03:52:16;5.67;;;4.60;;
73733;SDS011;62039;50.000;9.064;2023-01-24T03:54:42;6.20;;;5.27;;
73733;SDS011;62039;50.000;9.064;2023-01-24T03:57:09;6.00;;;5.20;;
73733;SDS011;62039;50.000;9.064;2023-01-24T03:59:35;5.97;;;4.90;;
73733;SDS011;62039;50.000;9.064;2023-01-24T04:02:02;6.30;;;4.93;;
73733;SDS011;62039;50.000;9.064;2023-01-24T04:04:28;6.03;;;5.20;;
73733;SDS011;62039;50.000;9.064;2023-01-24T04:06:56;6.50;;;4.90;;
73733;SDS011;62039;50.000;9.064;2023-01-24T04:09:23;6.07;;;5.23;;
73733;SDS011;62039;50.000;9.064;2023-01-24T04:11:49;5.83;;;4.57;;
73733;SDS011;62039;50.000;9.064;2023-01-24T04:14:16;6.43;;;4.87;;
73733;SDS011;62039;50.000;9.064;2023-01-24T04:16:42;6.23;;;4.90;;
73733;SDS011;62039;50.000;9.064;2023-01-24T04:19:09;5.93;;;4.93;;
73733;SDS011;62039;50.000;9.064;2023-01-24T04:21:35;6.97;;;5.00;;
73733;SDS011;62039;50.000;9.064;2023-01-24T04:24:03;6.67;;;5.13;;
73733;SDS011;62039;50.000;9.064;2023-01-24T04:26:30;6.93;;;5.63;;
73733;SDS011;62039;50.000;9.064;2023-01-24T04:28:57;5.80;;;5.20;;
73733;SDS011;62039;50.000;9.064;2023-01-24T04:31:23;6.33;;;4.67;;
73733;SDS011;62039;50.000;9.064;2023-01-24T04:33:50;6.23;;;5.43;;
73733;SDS011;62039;50.000;9.064;2023-01-24T04:36:16;7.60;;;6.23;;
73733;SDS011;62039;50.000;9.064;2023-01-24T04:38:43;7.20;;;6.00;;
73733;SDS011;62039;50.000;9.064;2023-01-24T04:41:11;6.10;;;5.30;;
73733;SDS011;62039;50.000;9.064;2023-01-24T04:43:37;6.73;;;5.07;;
73733;SDS011;62039;50.000;9.064;2023-01-24T04:46:04;7.20;;;5.50;;
73733;SDS011;62039;50.000;9.064;2023-01-24T04:48:30;7.03;;;5.20;;
73733;SDS011;62039;50.000;9.064;2023-01-24T04:50:57;8.27;;;6.47;;
73733;SDS011;62039;50.000;9.064;2023-01-24T04:53:24;10.63;;;8.23;;
73733;SDS011;62039;50.000;9.064;2023-01-24T04:55:51;14.73;;;10.67;;
73733;SDS011;62039;50.000;9.064;2023-01-24T04:58:19;9.70;;;7.57;;
73733;SDS011;62039;50.000;9.064;2023-01-24T05:00:47;7.67;;;6.00;;
73733;SDS011;62039;50.000;9.064;2023-01-24T05:03:14;6.67;;;4.97;;
73733;SDS011;62039;50.000;9.064;2023-01-24T05:05:40;4.87;;;4.23;;
73733;SDS011;62039;50.000;9.064;2023-01-24T05:08:07;4.30;;;3.87;;
73733;SDS011;62039;50.000;9.064;2023-01-24T05:10:34;4.97;;;4.37;;
73733;SDS011;62039;50.000;9.064;2023-01-24T05:13:00;5.83;;;4.90;;
73733;SDS011;62039;50.000;9.064;2023-01-24T05:15:28;5.97;;;4.83;;
73733;SDS011;62039;50.000;9.064;2023-01-24T05:17:55;4.80;;;4.27;;
73733;SDS011;62039;50.000;9.064;2023-01-24T05:20:21;5.50;;;4.40;;
73733;SDS011;62039;50.000;9.064;2023-01-24T05:22:48;5.30;;;4.50;;
73733;SDS011;62039;50.000;9.064;2023-01-24T05:25:14;4.20;;;3.60;;
73733;SDS011;62039;50.000;9.064;2023-01-24T05:27:41;4.07;;;3.63;;
73733;SDS011;62039;50.000;9.064;2023-01-24T05:30:09;5.20;;;4.10;;
73733;SDS011;62039;50.000;9.064;2023-01-24T05:32:39;3.93;;;3.57;;
73733;SDS011;62039;50.000;9.064;2023-01-24T05:35:07;3.70;;;3.27;;
73733;SDS011;62039;50.000;9.064;2023-01-24T05:37:35;4.30;;;3.13;;
73733;SDS011;62039;50.000;9.064;2023-01-24T05:40:03;5.07;;;3.60;;
73733;SDS011;62039;50.000;9.064;2023-01-24T05:42:30;4.37;;;3.80;;
73733;SDS011;62039;50.000;9.064;2023-01-24T05:44:57;4.60;;;3.63;;
73733;SDS011;62039;50.000;9.064;2023-01-24T05:47:23;3.67;;;3.03;;
73733;SDS011;62039;50.000;9.064;2023-01-24T05:49:51;4.03;;;3.63;;
73733;SDS011;62039;50.000;9.064;2023-01-24T05:52:18;3.90;;;3.40;;
73733;SDS011;62039;50.000;9.064;2023-01-24T05:54:44;3.57;;;3.27;;
73733;SDS011;62039;50.000;9.064;2023-01-24T05:57:11;3.40;;;2.83;;
73733;SDS011;62039;50.000;9.064;2023-01-24T05:59:37;4.00;;;3.60;;
73733;SDS011;62039;50.000;9.064;2023-01-24T06:02:04;4.40;;;3.70;;
73733;SDS011;62039;50.000;9.064;2023-01-24T06:04:30;4.23;;;3.60;;
73733;SDS011;62039;50.000;9.064;2023-01-24T06:06:58;4.67;;;4.17;;
73733;SDS011;62039;50.000;9.064;2023-01-24T06:09:24;3.97;;;3.20;;
73733;SDS011;62039;50.000;9.064;2023-01-24T06:11:51;3.93;;;3.50;;
73733;SDS011;62039;50.000;9.064;2023-01-24T06:14:18;3.97;;;3.40;;
73733;SDS011;62039;50.000;9.064;2023-01-24T06:16:45;3.93;;;3.53;;
73733;SDS011;62039;50.000;9.064;2023-01-24T06:19:12;3.80;;;3.40;;
73733;SDS011;62039;50.000;9.064;2023-01-24T06:21:42;4.10;;;3.17;;
73733;SDS011;62039;50.000;9.064;2023-01-24T06:24:14;3.50;;;3.17;;
73733;SDS011;62039;50.000;9.064;2023-01-24T06:26:43;3.07;;;2.77;;
73733;SDS011;62039;50.000;9.064;2023-01-24T06:29:10;3.80;;;3.10;;
73733;SDS011;62039;50.000;9.064;2023-01-24T06:31:38;3.43;;;2.87;;
73733;SDS011;62039;50.000;9.064;2023-01-24T06:34:16;4.50;;;3.70;;
73733;SDS011;62039;50.000;9.064;2023-01-24T06:37:00;4.97;;;3.70;;
73733;SDS011;62039;50.000;9.064;2023-01-24T06:39:36;4.13;;;3.60;;
73733;SDS011;62039;50.000;9.064;2023-01-24T06:42:06;4.63;;;3.60;;
73733;SDS011;62039;50.000;9.064;2023-01-24T06:44:34;3.80;;;3.40;;
73733;SDS011;62039;50.000;9.064;2023-01-24T06:47:01;3.77;;;3.37;;
73733;SDS011;62039;50.000;9.064;2023-01-24T06:49:27;4.27;;;3.47;;
73733;SDS011;62039;50.000;9.064;2023-01-24T06:51:54;3.93;;;3.53;;
73733;SDS011;62039;50.000;9.064;2023-01-24T06:54:20;4.60;;;3.53;;
73733;SDS011;62039;50.000;9.064;2023-01-24T06:56:48;4.10;;;3.43;;
73733;SDS011;62039;50.000;9.064;2023-01-24T06:59:14;5.90;;;4.63;;
73733;SDS011;62039;50.000;9.064;2023-01-24T07:01:41;5.77;;;4.43;;
73733;SDS011;62039;50.000;9.064;2023-01-24T07:04:08;5.03;;;4.47;;
73733;SDS011;62039;50.000;9.064;2023-01-24T07:06:34;4.93;;;4.30;;
73733;SDS011;62039;50.000;9.064;2023-01-24T07:09:01;5.73;;;4.90;;
73733;SDS011;62039;50.000;9.064;2023-01-24T07:11:27;4.40;;;4.00;;
73733;SDS011;62039;50.000;9.064;2023-01-24T07:13:55;3.77;;;3.33;;
73733;SDS011;62039;50.000;9.064;2023-01-24T07:16:22;4.03;;;3.63;;
73733;SDS011;62039;50.000;9.064;2023-01-24T07:18:48;3.77;;;3.37;;
73733;SDS011;62039;50.000;9.064;2023-01-24T07:21:15;3.77;;;3.37;;
73733;SDS011;62039;50.000;9.064;2023-01-24T07:23:43;3.97;;;3.10;;
73733;SDS011;62039;50.000;9.064;2023-01-24T07:26:10;3.47;;;3.13;;
73733;SDS011;62039;50.000;9.064;2023-01-24T07:28:37;4.77;;;3.93;;
73733;SDS011;62039;50.000;9.064;2023-01-24T07:31:05;5.23;;;4.47;;
73733;SDS011;62039;50.000;9.064;2023-01-24T07:33:32;6.30;;;4.63;;
73733;SDS011;62039;50.000;9.064;2023-01-24T07:35:59;5.40;;;4.20;;
73733;SDS011;62039;50.000;9.064;2023-01-24T07:38:26;5.90;;;4.53;;
73733;SDS011;62039;50.000;9.064;2023-01-24T07:40:52;5.10;;;4.17;;
73733;SDS011;62039;50.000;9.064;2023-01-24T07:43:19;4.87;;;3.93;;
73733;SDS011;62039;50.000;9.064;2023-01-24T07:45:45;4.03;;;3.63;;
73733;SDS011;62039;50.000;9.064;2023-01-24T07:48:14;4.57;;;3.57;;
73733;SDS011;62039;50.000;9.064;2023-01-24T07:50:40;5.60;;;4.33;;
73733;SDS011;62039;50.000;9.064;2023-01-24T07:53:07;3.70;;;3.30;;
73733;SDS011;62039;50.000;9.064;2023-01-24T07:55:33;4.40;;;3.40;;
73733;SDS011;62039;50.000;9.064;2023-01-24T07:58:00;3.97;;;3.27;;
73733;SDS011;62039;50.000;9.064;2023-01-24T08:00:28;3.27;;;2.90;;
73733;SDS011;62039;50.000;9.064;2023-01-24T08:02:55;4.57;;;4.10;;
73733;SDS011;62039;50.000;9.064;2023-01-24T08:05:23;4.20;;;3.80;;
73733;SDS011;62039;50.000;9.064;2023-01-24T08:07:50;4.87;;;3.87;;
73733;SDS011;62039;50.000;9.064;2023-01-24T08:10:17;5.50;;;4.27;;
73733;SDS011;62039;50.000;9.064;2023-01-24T08:12:43;4.17;;;3.60;;
73733;SDS011;62039;50.000;9.064;2023-01-24T08:15:10;4.20;;;3.40;;
73733;SDS011;62039;50.000;9.064;2023-01-24T08:17:36;4.20;;;3.70;;
73733;SDS011;62039;50.000;9.064;2023-01-24T08:20:04;4.60;;;4.00;;
73733;SDS011;62039;50.000;9.064;2023-01-24T08:22:32;3.63;;;3.20;;
73733;SDS011;62039;50.000;9.064;2023-01-24T08:24:59;3.50;;;3.10;;
73733;SDS011;62039;50.000;9.064;2023-01-24T08:27:25;3.70;;;3.23;;
73733;SDS011;62039;50.000;9.064;2023-01-24T08:29:52;4.00;;;3.50;;
73733;SDS011;62039;50.000;9.064;2023-01-24T08:32:18;3.70;;;3.07;;
73733;SDS011;62039;50.000;9.064;2023-01-24T08:34:45;3.80;;;3.40;;
73733;SDS011;62039;50.000;9.064;2023-01-24T08:37:11;4.17;;;3.40;;
73733;SDS011;62039;50.000;9.064;2023-01-24T08:39:39;5.63;;;4.20;;
73733;SDS011;62039;50.000;9.064;2023-01-24T08:42:06;5.17;;;4.10;;
73733;SDS011;62039;50.000;9.064;2023-01-24T08:44:33;5.00;;;3.83;;
73733;SDS011;62039;50.000;9.064;2023-01-24T08:47:00;4.57;;;3.57;;
73733;SDS011;62039;50.000;9.064;2023-01-24T08:49:26;4.20;;;3.73;;
73733;SDS011;62039;50.000;9.064;2023-01-24T08:51:53;4.77;;;3.90;;
73733;SDS011;62039;50.000;9.064;2023-01-24T08:54:20;3.90;;;3.30;;
73733;SDS011;62039;50.000;9.064;2023-01-24T08:56:48;3.80;;;3.40;;
73733;SDS011;62039;50.000;9.064;2023-01-24T08:59:14;3.73;;;3.10;;
73733;SDS011;62039;50.000;9.064;2023-01-24T09:01:41;4.20;;;3.80;;
73733;SDS011;62039;50.000;9.064;2023-01-24T09:04:07;4.40;;;3.53;;
73733;SDS011;62039;50.000;9.064;2023-01-24T09:06:35;3.67;;;3.13;;
73733;SDS011;62039;50.000;9.064;2023-01-24T09:09:01;3.37;;;2.80;;
73733;SDS011;62039;50.000;9.064;2023-01-24T09:11:28;3.53;;;3.10;;
73733;SDS011;62039;50.000;9.064;2023-01-24T09:13:56;4.30;;;3.43;;
73733;SDS011;62039;50.000;9.064;2023-01-24T09:16:23;4.57;;;3.97;;
73733;SDS011;62039;50.000;9.064;2023-01-24T09:18:50;6.20;;;4.40;;
73733;SDS011;62039;50.000;9.064;2023-01-24T09:21:16;4.37;;;3.67;;
73733;SDS011;62039;50.000;9.064;2023-01-24T09:23:43;3.67;;;3.33;;
73733;SDS011;62039;50.000;9.064;2023-01-24T09:26:10;3.47;;;3.13;;
73733;SDS011;62039;50.000;9.064;2023-01-24T09:28:37;4.17;;;3.00;;
73733;SDS011;62039;50.000;9.064;2023-01-24T09:31:06;4.10;;;3.03;;
73733;SDS011;62039;50.000;9.064;2023-01-24T09:33:34;3.80;;;3.03;;
73733;SDS011;62039;50.000;9.064;2023-01-24T09:36:01;3.37;;;2.93;;
73733;SDS011;62039;50.000;9.064;2023-01-24T09:38:30;4.33;;;3.63;;
73733;SDS011;62039;50.000;9.064;2023-01-24T09:41:00;4.27;;;3.83;;
73733;SDS011;62039;50.000;9.064;2023-01-24T09:43:40;4.63;;;3.87;;
73733;SDS011;62039;50.000;9.064;2023-01-24T09:46:18;3.83;;;3.30;;
73733;SDS011;62039;50.000;9.064;2023-01-24T09:48:52;3.40;;;3.00;;
73733;SDS011;62039;50.000;9.064;2023-01-24T09:51:26;2.90;;;2.60;;
73733;SDS011;62039;50.000;9.064;2023-01-24T09:53:55;3.43;;;3.13;;
73733;SDS011;62039;50.000;9.064;2023-01-24T09:56:25;3.20;;;2.90;;
73733;SDS011;62039;50.000;9.064;2023-01-24T09:58:57;3.47;;;3.00;;
73733;SDS011;62039;50.000;9.064;2023-01-24T10:01:30;4.03;;;3.50;;
73733;SDS011;62039;50.000;9.064;2023-01-24T10:03:56;3.47;;;2.77;;
73733;SDS011;62039;50.000;9.064;2023-01-24T10:06:24;3.33;;;2.60;;
73733;SDS011;62039;50.000;9.064;2023-01-24T10:08:56;3.43;;;2.80;;
73733;SDS011;62039;50.000;9.064;2023-01-24T10:11:29;5.40;;;3.70;;
73733;SDS011;62039;50.000;9.064;2023-01-24T10:14:06;3.67;;;3.37;;
73733;SDS011;62039;50.000;9.064;2023-01-24T10:16:48;4.13;;;3.50;;
73733;SDS011;62039;50.000;9.064;2023-01-24T10:19:48;3.70;;;3.40;;
73733;SDS011;62039;50.000;9.064;2023-01-24T10:22:26;3.37;;;3.07;;
73733;SDS011;62039;50.000;9.064;2023-01-24T10:25:08;3.10;;;2.80;;
73733;SDS011;62039;50.000;9.064;2023-01-24T10:27:41;3.67;;;3.20;;
73733;SDS011;62039;50.000;9.064;2023-01-24T10:30:12;3.50;;;3.00;;
73733;SDS011;62039;50.000;9.064;2023-01-24T10:32:43;3.53;;;3.23;;
73733;SDS011;62039;50.000;9.064;2023-01-24T10:35:14;3.67;;;3.37;;
73733;SDS011;62039;50.000;9.064;2023-01-24T10:37:44;3.33;;;3.03;;
73733;SDS011;62039;50.000;9.064;2023-01-24T10:40:14;3.27;;;2.90;;
73733;SDS011;62039;50.000;9.064;2023-01-24T10:42:42;2.90;;;2.60;;
73733;SDS011;62039;50.000;9.064;2023-01-24T10:45:16;2.70;;;2.50;;
73733;SDS011;62039;50.000;9.064;2023-01-24T10:47:55;3.80;;;3.40;;
73733;SDS011;62039;50.000;9.064;2023-01-24T10:50:32;3.17;;;2.87;;
73733;SDS011;62039;50.000;9.064;2023-01-24T10:53:11;3.53;;;3.00;;
73733;SDS011;62039;50.000;9.064;2023-01-24T10:55:54;3.90;;;3.47;;
73733;SDS011;62039;50.000;9.064;2023-01-24T10:58:25;4.07;;;3.43;;
73733;SDS011;62039;50.000;9.064;2023-01-24T11:00:56;4.27;;;3.57;;
73733;SDS011;62039;50.000;9.064;2023-01-24T11:03:27;4.00;;;3.40;;
73733;SDS011;62039;50.000;9.064;2023-01-24T11:05:56;3.23;;;2.93;;
73733;SDS011;62039;50.000;9.064;2023-01-24T11:08:24;3.97;;;3.13;;
73733;SDS011;62039;50.000;9.064;2023-01-24T11:10:52;3.63;;;2.90;;
73733;SDS011;62039;50.000;9.064;2023-01-24T11:13:26;3.10;;;2.80;;
73733;SDS011;62039;50.000;9.064;2023-01-24T11:16:02;3.90;;;3.50;;
73733;SDS011;62039;50.000;9.064;2023-01-24T11:18:32;4.37;;;3.77;;
73733;SDS011;62039;50.000;9.064;2023-01-24T11:21:04;3.80;;;3.30;;
73733;SDS011;62039;50.000;9.064;2023-01-24T11:23:32;3.60;;;2.97;;
73733;SDS011;62039;50.000;9.064;2023-01-24T11:25:59;3.53;;;2.97;;
73733;SDS011;62039;50.000;9.064;2023-01-24T11:28:28;3.90;;;3.33;;
73733;SDS011;62039;50.000;9.064;2023-01-24T11:30:56;3.97;;;3.47;;
73733;SDS011;62039;50.000;9.064;2023-01-24T11:33:33;4.27;;;3.87;;
73733;SDS011;62039;50.000;9.064;2023-01-24T11:36:20;3.50;;;3.17;;
73733;SDS011;62039;50.000;9.064;2023-01-24T11:38:59;3.57;;;3.20;;
73733;SDS011;62039;50.000;9.064;2023-01-24T11:41:29;3.33;;;3.03;;
73733;SDS011;62039;50.000;9.064;2023-01-24T11:44:17;4.77;;;3.50;;
73733;SDS011;62039;50.000;9.064;2023-01-24T11:47:02;4.13;;;3.40;;
73733;SDS011;62039;50.000;9.064;2023-01-24T11:49:44;3.50;;;3.20;;
73733;SDS011;62039;50.000;9.064;2023-01-24T11:52:35;3.80;;;3.23;;
73733;SDS011;62039;50.000;9.064;2023-01-24T11:55:12;4.17;;;3.13;;
73733;SDS011;62039;50.000;9.064;2023-01-24T11:57:49;4.53;;;3.57;;
73733;SDS011;62039;50.000;9.064;2023-01-24T12:00:29;3.80;;;3.43;;
73733;SDS011;62039;50.000;9.064;2023-01-24T12:03:03;3.60;;;2.83;;
73733;SDS011;62039;50.000;9.064;2023-01-24T12:05:44;4.43;;;3.07;;
73733;SDS011;62039;50.000;9.064;2023-01-24T12:08:32;3.50;;;3.20;;
73733;SDS011;62039;50.000;9.064;2023-01-24T12:11:11;3.53;;;3.10;;
73733;SDS011;62039;50.000;9.064;2023-01-24T12:14:09;4.00;;;3.33;;
73733;SDS011;62039;50.000;9.064;2023-01-24T12:16:53;4.83;;;3.33;;
73733;SDS011;62039;50.000;9.064;2023-01-24T12:19:41;4.10;;;3.30;;
73733;SDS011;62039;50.000;9.064;2023-01-24T12:22:19;4.10;;;3.50;;
73733;SDS011;62039;50.000;9.064;2023-01-24T12:24:51;4.67;;;3.90;;
73733;SDS011;62039;50.000;9.064;2023-01-24T12:27:21;4.40;;;3.10;;
73733;SDS011;62039;50.000;9.064;2023-01-24T12:29:52;3.50;;;3.20;;
73733;SDS011;62039;50.000;9.064;2023-01-24T12:32:23;4.00;;;3.50;;
73733;SDS011;62039;50.000;9.064;2023-01-24T12:34:54;3.63;;;3.20;;
73733;SDS011;62039;50.000;9.064;2023-01-24T12:37:26;4.10;;;3.60;;
73733;SDS011;62039;50.000;9.064;2023-01-24T12:39:58;4.33;;;3.63;;
73733;SDS011;62039;50.000;9.064;2023-01-24T12:42:34;4.23;;;3.60;;
73733;SDS011;62039;50.000;9.064;2023-01-24T12:45:11;3.97;;;3.57;;
73733;SDS011;62039;50.000;9.064;2023-01-24T12:47:42;5.07;;;3.87;;
73733;SDS011;62039;50.000;9.064;2023-01-24T12:50:15;4.63;;;3.83;;
73733;SDS011;62039;50.000;9.064;2023-01-24T12:52:54;5.80;;;4.47;;
73733;SDS011;62039;50.000;9.064;2023-01-24T12:55:30;7.60;;;5.67;;
73733;SDS011;62039;50.000;9.064;2023-01-24T12:58:01;7.63;;;5.07;;
73733;SDS011;62039;50.000;9.064;2023-01-24T13:00:32;5.23;;;4.00;;
73733;SDS011;62039;50.000;9.064;2023-01-24T13:03:23;4.63;;;4.10;;
73733;SDS011;62039;50.000;9.064;2023-01-24T13:05:55;4.50;;;3.60;;
73733;SDS011;62039;50.000;9.064;2023-01-24T13:08:38;4.13;;;3.53;;
73733;SDS011;62039;50.000;9.064;2023-01-24T13:11:18;4.30;;;3.50;;
73733;SDS011;62039;50.000;9.064;2023-01-24T13:13:57;4.57;;;3.47;;
73733;SDS011;62039;50.000;9.064;2023-01-24T13:19:44;3.87;;;3.40;;
73733;SDS011;62039;50.000;9.064;2023-01-24T13:22:27;3.57;;;3.17;;
73733;SDS011;62039;50.000;9.064;2023-01-24T13:25:18;4.33;;;3.60;;
73733;SDS011;62039;50.000;9.064;2023-01-24T13:28:05;4.50;;;4.10;;
73733;SDS011;62039;50.000;9.064;2023-01-24T13:30:41;4.10;;;3.70;;
73733;SDS011;62039;50.000;9.064;2023-01-24T13:33:13;4.37;;;3.80;;
73733;SDS011;62039;50.000;9.064;2023-01-24T13:35:47;4.43;;;4.00;;
73733;SDS011;62039;50.000;9.064;2023-01-24T13:38:16;3.97;;;3.47;;
73733;SDS011;62039;50.000;9.064;2023-01-24T13:40:59;4.53;;;3.83;;
73733;SDS011;62039;50.000;9.064;2023-01-24T13:49:31;4.53;;;3.70;;
73733;SDS011;62039;50.000;9.064;2023-01-24T13:52:00;4.50;;;3.60;;
73733;SDS011;62039;50.000;9.064;2023-01-24T13:54:35;4.60;;;4.20;;
73733;SDS011;62039;50.000;9.064;2023-01-24T13:57:21;4.83;;;3.90;;
73733;SDS011;62039;50.000;9.064;2023-01-24T13:59:57;4.90;;;4.20;;
73733;SDS011;62039;50.000;9.064;2023-01-24T14:02:40;4.73;;;3.63;;
73733;SDS011;62039;50.000;9.064;2023-01-24T14:08:14;4.70;;;4.00;;
73733;SDS011;62039;50.000;9.064;2023-01-24T14:11:08;4.70;;;4.20;;
73733;SDS011;62039;50.000;9.064;2023-01-24T14:13:54;4.87;;;4.10;;
73733;SDS011;62039;50.000;9.064;2023-01-24T14:19:24;5.30;;;3.83;;
73733;SDS011;62039;50.000;9.064;2023-01-24T14:21:53;5.40;;;4.30;;
73733;SDS011;62039;50.000;9.064;2023-01-24T14:24:22;4.00;;;3.53;;
73733;SDS011;62039;50.000;9.064;2023-01-24T14:26:51;3.50;;;3.20;;
73733;SDS011;62039;50.000;9.064;2023-01-24T14:29:21;3.50;;;3.20;;
73733;SDS011;62039;50.000;9.064;2023-01-24T14:32:00;4.70;;;3.60;;
73733;SDS011;62039;50.000;9.064;2023-01-24T14:34:28;4.73;;;3.67;;
73733;SDS011;62039;50.000;9.064;2023-01-24T14:37:01;7.60;;;5.47;;
73733;SDS011;62039;50.000;9.064;2023-01-24T14:39:31;5.60;;;4.90;;
73733;SDS011;62039;50.000;9.064;2023-01-24T14:41:58;6.43;;;5.20;;
73733;SDS011;62039;50.000;9.064;2023-01-24T14:44:27;4.87;;;4.00;;
73733;SDS011;62039;50.000;9.064;2023-01-24T14:46:56;5.20;;;4.70;;
73733;SDS011;62039;50.000;9.064;2023-01-24T14:49:29;5.13;;;4.63;;
73733;SDS011;62039;50.000;9.064;2023-01-24T14:51:57;5.17;;;4.67;;
73733;SDS011;62039;50.000;9.064;2023-01-24T14:54:43;4.43;;;3.87;;
73733;SDS011;62039;50.000;9.064;2023-01-24T14:57:18;4.30;;;3.83;;
73733;SDS011;62039;50.000;9.064;2023-01-24T14:59:47;3.93;;;3.53;;
73733;SDS011;62039;50.000;9.064;2023-01-24T15:02:24;5.00;;;3.60;;
73733;SDS011;62039;50.000;9.064;2023-01-24T15:04:51;5.93;;;4.37;;
73733;SDS011;62039;50.000;9.064;2023-01-24T15:07:18;5.60;;;4.37;;
73733;SDS011;62039;50.000;9.064;2023-01-24T15:09:44;5.90;;;4.80;;
73733;SDS011;62039;50.000;9.064;2023-01-24T15:12:12;4.97;;;4.23;;
73733;SDS011;62039;50.000;9.064;2023-01-24T15:14:40;4.40;;;4.00;;
73733;SDS011;62039;50.000;9.064;2023-01-24T15:17:14;5.17;;;4.07;;
73733;SDS011;62039;50.000;9.064;2023-01-24T15:19:42;3.93;;;3.53;;